createdAt,value
2019-04-14T00:00:16.478Z,27.80
2019-04-14T00:02:55.466Z,25.60
2019-04-14T00:05:31.430Z,23.27
2019-04-14T00:08:02.685Z,25.87
2019-04-14T00:10:35.496Z,23.07
2019-04-14T00:13:08.976Z,23.77
2019-04-14T00:15:45.151Z,26.63
2019-04-14T00:18:16.447Z,30.10
2019-04-14T00:20:49.572Z,28.90
2019-04-14T00:23:22.256Z,29.77
2019-04-14T00:25:54.556Z,27.27
2019-04-14T00:28:27.715Z,26.53
2019-04-14T00:31:02.388Z,26.27
2019-04-14T00:33:35.114Z,25.53
2019-04-14T00:36:10.992Z,27.53
2019-04-14T00:38:46.012Z,28.30
2019-04-14T00:41:41.323Z,25.17
2019-04-14T00:44:14.551Z,27.20
2019-04-14T00:46:58.277Z,22.53
2019-04-14T00:49:31.171Z,24.30
2019-04-14T00:52:04.144Z,24.60
2019-04-14T00:54:39.210Z,25.13
2019-04-14T00:57:11.826Z,24.23
2019-04-14T00:59:44.106Z,26.07
2019-04-14T01:02:16.768Z,24.63
2019-04-14T01:04:51.229Z,26.67
2019-04-14T01:07:24.138Z,25.77
2019-04-14T01:09:57.526Z,24.40
2019-04-14T01:12:30.354Z,27.37
2019-04-14T01:15:05.001Z,24.80
2019-04-14T01:17:37.858Z,24.90
2019-04-14T01:20:10.736Z,25.07
2019-04-14T01:22:44.476Z,25.77
2019-04-14T01:25:17.332Z,30.17
2019-04-14T01:27:51.734Z,27.23
2019-04-14T01:30:24.188Z,25.50
2019-04-14T01:32:56.905Z,27.60
2019-04-14T01:35:29.599Z,27.83
2019-04-14T01:38:02.282Z,27.23
2019-04-14T01:40:35.938Z,24.87
2019-04-14T01:43:09.984Z,27.23
2019-04-14T01:45:43.123Z,25.90
2019-04-14T01:48:17.087Z,26.63
2019-04-14T01:50:51.676Z,23.73
2019-04-14T01:53:29.287Z,24.23
2019-04-14T01:56:16.506Z,26.30
2019-04-14T01:58:53.617Z,25.43
2019-04-14T02:01:30.577Z,25.30
2019-04-14T02:04:03.217Z,25.57
2019-04-14T02:06:35.833Z,24.70
2019-04-14T02:09:12.204Z,24.73
2019-04-14T02:11:44.888Z,24.30
2019-04-14T02:14:17.408Z,25.57
2019-04-14T02:16:55.242Z,25.07
2019-04-14T02:19:26.252Z,21.60
2019-04-14T02:21:58.831Z,22.00
2019-04-14T02:24:31.434Z,23.23
2019-04-14T02:27:03.681Z,20.13
2019-04-14T02:29:36.710Z,21.40
2019-04-14T02:32:47.178Z,21.67
2019-04-14T02:35:10.862Z,22.60
2019-04-14T02:37:45.504Z,20.57
2019-04-14T02:40:33.163Z,18.40
2019-04-14T02:42:54.236Z,21.10
2019-04-14T02:45:45.205Z,20.27
2019-04-14T02:53:15.657Z,18.23
2019-04-14T02:55:48.921Z,22.87
2019-04-14T03:01:02.839Z,20.50
2019-04-14T03:06:10.440Z,21.33
2019-04-14T03:11:26.963Z,17.80
2019-04-14T03:13:44.971Z,18.30
2019-04-14T03:16:23.540Z,19.67
2019-04-14T03:32:23.538Z,19.70
2019-04-14T03:34:52.078Z,21.37
2019-04-14T03:37:37.649Z,19.10
2019-04-14T03:42:31.328Z,18.00
2019-04-14T03:45:00.520Z,18.13
2019-04-14T03:50:09.710Z,21.33
2019-04-14T03:55:05.552Z,20.97
2019-04-14T03:57:27.031Z,19.20
2019-04-14T03:59:58.917Z,20.97
2019-04-14T04:02:31.599Z,22.13
2019-04-14T04:05:04.325Z,18.27
2019-04-14T04:07:37.047Z,19.17
2019-04-14T04:10:11.497Z,18.80
2019-04-14T04:12:44.463Z,21.73
2019-04-14T04:15:17.063Z,18.90
2019-04-14T04:17:51.672Z,21.67
2019-04-14T04:20:26.369Z,19.43
2019-04-14T04:23:07.388Z,19.70
2019-04-14T04:25:42.199Z,21.80
2019-04-14T04:28:14.515Z,18.67
2019-04-14T04:30:51.851Z,17.10
2019-04-14T04:33:42.338Z,19.00
2019-04-14T04:36:29.159Z,19.03
2019-04-14T04:39:03.942Z,19.27
2019-04-14T04:41:36.977Z,18.27
2019-04-14T04:44:09.655Z,18.07
2019-04-14T04:46:43.722Z,18.77
2019-04-14T04:49:21.753Z,19.17
2019-04-14T04:51:53.039Z,19.93
2019-04-14T04:54:27.830Z,16.93
2019-04-14T04:57:01.041Z,18.77
2019-04-14T04:59:34.360Z,18.53
2019-04-14T05:02:07.110Z,20.13
2019-04-14T05:04:39.786Z,18.60
2019-04-14T05:07:12.521Z,19.50
2019-04-14T05:09:46.935Z,19.30
2019-04-14T05:12:24.253Z,19.97
2019-04-14T05:15:00.986Z,19.30
2019-04-14T05:17:38.909Z,18.20
2019-04-14T05:20:12.045Z,17.73
2019-04-14T05:22:44.716Z,18.20
2019-04-14T05:25:17.405Z,16.23
2019-04-14T05:27:50.079Z,18.00
2019-04-14T05:30:22.767Z,17.33
2019-04-14T05:32:56.512Z,18.93
2019-04-14T05:35:29.448Z,19.50
2019-04-14T05:38:02.183Z,18.53
2019-04-14T05:40:34.492Z,21.07
2019-04-14T05:43:07.133Z,17.97
2019-04-14T05:45:39.852Z,22.67
2019-04-14T05:48:12.098Z,18.30
2019-04-14T05:50:44.802Z,17.20
2019-04-14T05:53:17.524Z,18.47
2019-04-14T05:55:50.422Z,20.50
2019-04-14T05:58:23.292Z,19.10
2019-04-14T06:00:55.926Z,21.50
2019-04-14T06:03:29.835Z,17.13
2019-04-14T06:06:03.612Z,20.33
2019-04-14T06:08:36.224Z,18.33
2019-04-14T06:11:08.906Z,18.47
2019-04-14T06:13:41.639Z,19.07
2019-04-14T06:16:14.358Z,21.03
2019-04-14T06:18:47.036Z,20.97
2019-04-14T06:21:19.721Z,19.47
2019-04-14T06:23:52.401Z,18.47
2019-04-14T06:26:24.970Z,19.30
2019-04-14T06:28:57.219Z,19.87
2019-04-14T06:31:47.544Z,18.53
2019-04-14T06:34:21.747Z,22.67
2019-04-14T06:36:59.036Z,28.83
2019-04-14T06:39:39.183Z,29.50
2019-04-14T06:42:11.492Z,22.30
2019-04-14T06:44:43.728Z,25.13
2019-04-14T06:47:16.411Z,20.43
2019-04-14T06:49:49.426Z,20.27
2019-04-14T06:52:22.489Z,19.83
2019-04-14T06:54:55.156Z,22.33
2019-04-14T06:57:27.836Z,23.03
2019-04-14T07:00:00.075Z,20.57
2019-04-14T07:02:32.791Z,18.37
2019-04-14T07:05:07.116Z,21.83
2019-04-14T07:07:39.422Z,19.20
2019-04-14T07:10:12.062Z,21.17
2019-04-14T07:12:44.366Z,18.67
2019-04-14T07:15:17.009Z,20.90
2019-04-14T07:17:49.680Z,23.53
2019-04-14T07:20:22.253Z,20.57
2019-04-14T07:22:54.936Z,20.57
2019-04-14T07:25:27.626Z,21.07
2019-04-14T07:28:00.142Z,21.63
2019-04-14T07:30:47.406Z,23.70
2019-04-14T07:33:31.648Z,19.80
2019-04-14T07:36:12.737Z,23.07
2019-04-14T07:38:46.856Z,21.27
2019-04-14T07:41:29.881Z,21.43
2019-04-14T07:44:04.073Z,25.57
2019-04-14T07:46:56.140Z,23.33
2019-04-14T07:49:42.418Z,21.63
2019-04-14T07:52:28.613Z,23.33
2019-04-14T07:55:00.985Z,22.80
2019-04-14T07:57:53.541Z,23.30
2019-04-14T08:00:31.644Z,21.70
2019-04-14T08:03:07.142Z,27.43
2019-04-14T08:05:41.405Z,25.17
2019-04-14T08:08:13.647Z,27.37
2019-04-14T08:10:46.357Z,24.47
2019-04-14T08:13:19.025Z,23.97
2019-04-14T08:15:51.565Z,26.97
2019-04-14T08:18:24.050Z,23.33
2019-04-14T08:20:56.765Z,24.83
2019-04-14T08:23:29.450Z,21.83
2019-04-14T08:26:02.127Z,24.70
2019-04-14T08:28:34.802Z,21.83
2019-04-14T08:31:07.534Z,26.73
2019-04-14T08:33:40.148Z,22.67
2019-04-14T08:36:13.858Z,25.53
2019-04-14T08:38:46.433Z,24.07
2019-04-14T08:41:19.119Z,26.80
2019-04-14T08:44:09.300Z,26.40
2019-04-14T08:46:42.259Z,22.57
2019-04-14T08:49:31.152Z,19.70
2019-04-14T08:52:11.512Z,21.13
2019-04-14T08:54:55.962Z,22.97
2019-04-14T08:57:45.234Z,18.73
2019-04-14T09:00:26.303Z,20.23
2019-04-14T09:03:03.335Z,22.03
2019-04-14T09:05:37.495Z,20.70
2019-04-14T09:08:17.973Z,20.47
2019-04-14T09:10:54.635Z,21.40
2019-04-14T09:13:26.940Z,16.77
2019-04-14T09:15:59.590Z,17.30
2019-04-14T09:18:32.371Z,16.83
2019-04-14T09:21:06.279Z,18.23
2019-04-14T09:23:39.056Z,15.17
2019-04-14T09:26:11.736Z,15.20
2019-04-14T09:28:44.419Z,17.53
2019-04-14T09:31:17.094Z,14.03
2019-04-14T09:33:49.774Z,13.30
2019-04-14T09:36:22.447Z,11.63
2019-04-14T09:38:56.925Z,15.90
2019-04-14T09:41:29.554Z,11.17
2019-04-14T09:44:02.225Z,13.27
2019-04-14T09:46:35.932Z,13.43
2019-04-14T09:49:08.617Z,14.80
2019-04-14T09:51:41.295Z,13.33
2019-04-14T09:54:14.073Z,13.37
2019-04-14T09:56:46.744Z,11.70
2019-04-14T09:59:19.059Z,11.13
2019-04-14T10:01:51.803Z,10.70
2019-04-14T10:04:24.487Z,12.13
2019-04-14T10:06:57.259Z,12.60
2019-04-14T10:09:30.256Z,12.40
2019-04-14T10:12:02.931Z,11.53
2019-04-14T10:14:35.601Z,11.63
2019-04-14T10:17:08.386Z,11.10
2019-04-14T10:19:41.071Z,12.57
2019-04-14T10:22:13.309Z,13.53
2019-04-14T10:24:45.925Z,11.77
2019-04-14T10:27:18.692Z,12.70
2019-04-14T10:29:51.377Z,13.80
2019-04-14T10:32:24.053Z,11.17
2019-04-14T10:34:57.917Z,19.43
2019-04-14T10:37:30.532Z,13.83
2019-04-14T10:40:05.962Z,15.93
2019-04-14T10:42:38.965Z,16.27
2019-04-14T10:45:11.781Z,13.30
2019-04-14T10:47:44.635Z,12.33
2019-04-14T10:50:29.989Z,11.33
2019-04-14T10:52:51.502Z,8.60
2019-04-14T10:55:24.199Z,8.63
2019-04-14T10:57:56.883Z,10.83
2019-04-14T11:00:29.529Z,8.07
2019-04-14T11:03:02.138Z,9.33
2019-04-14T11:05:53.454Z,9.73
2019-04-14T11:08:26.233Z,7.00
2019-04-14T11:10:59.214Z,7.87
2019-04-14T11:13:31.804Z,7.93
2019-04-14T11:16:04.486Z,9.33
2019-04-14T11:18:37.158Z,7.57
2019-04-14T11:21:09.837Z,8.27
2019-04-14T11:23:42.525Z,7.53
2019-04-14T11:26:14.828Z,9.50
2019-04-14T11:28:48.690Z,9.17
2019-04-14T11:31:25.683Z,9.90
2019-04-14T11:34:03.060Z,10.20
2019-04-14T11:36:40.254Z,7.40
2019-04-14T11:39:14.065Z,9.43
2019-04-14T11:41:46.888Z,10.67
2019-04-14T11:44:19.823Z,9.03
2019-04-14T11:46:52.164Z,10.57
2019-04-14T11:49:25.590Z,9.83
2019-04-14T11:51:58.478Z,12.07
2019-04-14T11:54:31.146Z,11.43
2019-04-14T11:57:03.841Z,10.00
2019-04-14T11:59:38.328Z,10.00
2019-04-14T12:02:21.425Z,9.03
2019-04-14T12:05:04.290Z,11.27
2019-04-14T12:07:40.978Z,10.50
2019-04-14T12:10:14.989Z,9.63
2019-04-14T12:12:47.761Z,11.10
2019-04-14T12:15:20.801Z,8.40
2019-04-14T12:17:53.525Z,12.00
2019-04-14T12:20:26.211Z,9.30
2019-04-14T12:22:58.748Z,9.07
2019-04-14T12:25:31.369Z,11.97
2019-04-14T12:28:04.764Z,8.47
2019-04-14T12:30:37.740Z,8.63
2019-04-14T12:33:10.732Z,8.13
2019-04-14T12:35:43.207Z,7.73
2019-04-14T12:38:15.887Z,8.77
2019-04-14T12:40:50.045Z,8.40
2019-04-14T12:43:30.970Z,8.80
2019-04-14T12:46:20.546Z,9.37
2019-04-14T12:49:09.720Z,8.67
2019-04-14T12:51:46.687Z,8.87
2019-04-14T12:54:21.021Z,8.13
2019-04-14T12:56:53.747Z,11.13
2019-04-14T12:59:29.327Z,12.03
2019-04-14T13:02:07.755Z,8.63
2019-04-14T13:04:40.524Z,7.73
2019-04-14T13:07:13.210Z,8.67
2019-04-14T13:09:47.016Z,7.17
2019-04-14T13:12:19.689Z,8.47
2019-04-14T13:14:52.377Z,8.83
2019-04-14T13:17:25.348Z,7.67
2019-04-14T13:19:57.898Z,9.70
2019-04-14T13:22:34.132Z,7.50
2019-04-14T13:25:07.084Z,10.47
2019-04-14T13:27:39.455Z,6.43
2019-04-14T13:30:14.249Z,8.67
2019-04-14T13:32:46.490Z,10.30
2019-04-14T13:35:18.929Z,8.03
2019-04-14T13:37:51.579Z,10.43
2019-04-14T13:40:23.874Z,8.30
2019-04-14T13:42:56.570Z,9.53
2019-04-14T13:45:29.308Z,7.27
2019-04-14T13:48:01.989Z,10.67
2019-04-14T13:50:34.686Z,9.20
2019-04-14T13:53:07.341Z,8.97
2019-04-14T13:55:40.026Z,10.57
2019-04-14T13:58:12.700Z,8.50
2019-04-14T14:00:45.387Z,9.13
2019-04-14T14:03:18.060Z,10.37
2019-04-14T14:05:51.357Z,9.93
2019-04-14T14:08:24.033Z,9.23
2019-04-14T14:10:58.342Z,7.93
2019-04-14T14:13:38.501Z,10.60
2019-04-14T14:16:12.822Z,13.33
2019-04-14T14:18:56.147Z,9.10
2019-04-14T14:21:31.381Z,9.50
2019-04-14T14:24:17.686Z,9.70
2019-04-14T14:26:51.551Z,8.93
2019-04-14T14:29:23.691Z,10.83
2019-04-14T14:31:57.671Z,7.83
2019-04-14T14:34:30.352Z,10.33
2019-04-14T14:37:03.022Z,8.20
2019-04-14T14:39:36.220Z,7.60
2019-04-14T14:42:08.897Z,7.97
2019-04-14T14:44:45.878Z,7.47
2019-04-14T14:47:20.101Z,7.83
2019-04-14T14:49:54.316Z,7.37
2019-04-14T14:52:27.309Z,7.30
2019-04-14T14:54:59.978Z,12.07
2019-04-14T14:57:32.277Z,8.97
2019-04-14T15:00:10.750Z,6.77
2019-04-14T15:02:43.431Z,7.50
2019-04-14T15:05:16.419Z,7.47
2019-04-14T15:07:49.100Z,8.40
2019-04-14T15:10:21.781Z,7.57
2019-04-14T15:12:54.467Z,8.30
2019-04-14T15:15:27.173Z,6.30
2019-04-14T15:17:59.916Z,7.57
2019-04-14T15:20:32.711Z,7.33
2019-04-14T15:23:05.989Z,7.93
2019-04-14T15:25:38.671Z,8.83
2019-04-14T15:28:11.359Z,7.93
2019-04-14T15:30:44.038Z,10.90
2019-04-14T15:33:16.712Z,8.87
2019-04-14T15:35:49.386Z,8.73
2019-04-14T15:38:21.973Z,7.93
2019-04-14T15:40:54.215Z,9.43
2019-04-14T15:43:26.508Z,9.23
2019-04-14T15:45:59.195Z,8.43
2019-04-14T15:48:31.909Z,7.43
2019-04-14T15:51:04.553Z,9.53
2019-04-14T15:53:38.411Z,7.87
2019-04-14T15:56:12.865Z,9.33
2019-04-14T15:58:50.168Z,7.40
2019-04-14T16:01:30.415Z,8.40
2019-04-14T16:04:04.648Z,9.23
2019-04-14T16:06:47.860Z,13.60
2019-04-14T16:09:24.703Z,11.00
2019-04-14T16:12:02.872Z,6.83
2019-04-14T16:14:37.580Z,8.40
2019-04-14T16:17:28.182Z,8.27
2019-04-14T16:20:11.496Z,5.70
2019-04-14T16:22:44.277Z,7.37
2019-04-14T16:25:16.580Z,9.53
2019-04-14T16:28:03.060Z,7.87
2019-04-14T16:30:40.133Z,9.10
2019-04-14T16:33:14.347Z,9.70
2019-04-14T16:35:48.559Z,8.77
2019-04-14T16:38:21.143Z,8.60
2019-04-14T16:40:54.329Z,7.93
2019-04-14T16:43:27.121Z,7.70
2019-04-14T16:45:59.801Z,8.10
2019-04-14T16:48:32.473Z,6.77
2019-04-14T16:51:06.173Z,6.47
2019-04-14T16:53:40.596Z,7.57
2019-04-14T16:56:14.913Z,7.43
2019-04-14T16:58:48.729Z,7.93
2019-04-14T17:01:28.721Z,7.80
2019-04-14T17:04:01.458Z,8.27
2019-04-14T17:06:34.128Z,6.47
2019-04-14T17:09:08.958Z,11.23
2019-04-14T17:11:43.185Z,9.30
2019-04-14T17:14:17.434Z,7.53
2019-04-14T17:16:57.501Z,8.43
2019-04-14T17:19:37.922Z,10.80
2019-04-14T17:22:15.299Z,9.37
2019-04-14T17:24:55.343Z,9.43
2019-04-14T17:27:29.212Z,9.17
2019-04-14T17:30:22.624Z,10.43
2019-04-14T17:33:04.100Z,10.80
2019-04-14T17:35:54.409Z,9.73
2019-04-14T17:38:29.204Z,9.90
2019-04-14T17:41:21.406Z,10.43
2019-04-14T17:44:06.933Z,17.00
2019-04-14T17:47:12.203Z,17.17
2019-04-14T17:49:53.251Z,22.67
2019-04-14T17:52:46.463Z,25.20
2019-04-14T17:55:34.020Z,25.53
2019-04-14T17:58:23.329Z,23.00
2019-04-14T18:01:12.120Z,26.00
2019-04-14T18:04:04.203Z,20.53
2019-04-14T18:06:58.415Z,19.10
2019-04-14T18:10:01.932Z,16.37
2019-04-14T18:12:49.847Z,18.13
2019-04-14T18:15:50.042Z,20.93
2019-04-14T18:18:46.411Z,17.50
2019-04-14T18:21:39.650Z,16.90
2019-04-14T18:24:41.232Z,16.53
2019-04-14T18:27:17.397Z,19.77
2019-04-14T18:30:07.712Z,20.43
2019-04-14T18:33:22.585Z,22.23
2019-04-14T18:36:19.551Z,17.33
2019-04-14T18:39:02.573Z,17.03
2019-04-14T18:41:58.386Z,22.00
2019-04-14T18:44:49.551Z,24.90
2019-04-14T18:47:32.984Z,23.73
2019-04-14T18:50:19.962Z,26.23
2019-04-14T18:53:07.909Z,26.57
2019-04-14T18:55:53.540Z,23.50
2019-04-14T18:58:52.636Z,27.43
2019-04-14T19:01:36.691Z,23.67
2019-04-14T19:04:15.775Z,23.47
2019-04-14T19:06:57.764Z,17.70
2019-04-14T19:09:37.506Z,16.93
2019-04-14T19:12:25.835Z,19.10
2019-04-14T19:15:17.708Z,19.00
2019-04-14T19:18:05.827Z,21.20
2019-04-14T19:20:47.251Z,20.07
2019-04-14T19:23:32.907Z,28.87
2019-04-14T19:26:16.303Z,33.30
2019-04-14T19:28:57.031Z,33.03
2019-04-14T19:31:43.913Z,29.70
2019-04-14T19:34:19.658Z,26.93
2019-04-14T19:36:59.878Z,21.30
2019-04-14T19:39:32.502Z,21.83
2019-04-14T19:42:05.165Z,18.63
2019-04-14T19:44:37.830Z,17.47
2019-04-14T19:47:11.248Z,14.07
2019-04-14T19:49:44.533Z,13.80
2019-04-14T19:52:20.552Z,16.90
2019-04-14T19:54:53.008Z,15.93
2019-04-14T19:57:25.668Z,13.07
2019-04-14T19:59:58.229Z,14.57
2019-04-14T20:02:30.957Z,10.67
2019-04-14T20:05:03.236Z,14.47
2019-04-14T20:07:35.757Z,13.40
2019-04-14T20:10:09.966Z,13.30
2019-04-14T20:12:42.646Z,10.93
2019-04-14T20:15:16.965Z,13.83
2019-04-14T20:17:53.953Z,14.57
2019-04-14T20:20:28.259Z,11.17
2019-04-14T20:23:10.325Z,13.33
2019-04-14T20:25:47.450Z,17.17
2019-04-14T20:28:21.710Z,11.60
2019-04-14T20:30:55.512Z,15.20
2019-04-14T20:33:27.823Z,12.77
2019-04-14T20:36:00.412Z,13.63
2019-04-14T20:38:33.088Z,13.50
2019-04-14T20:41:05.778Z,14.07
2019-04-14T20:43:38.451Z,12.60
2019-04-14T20:46:10.678Z,14.03
2019-04-14T20:48:43.402Z,14.07
2019-04-14T20:51:16.893Z,13.80
2019-04-14T20:53:50.288Z,13.27
2019-04-14T20:56:22.968Z,14.07
2019-04-14T20:58:55.270Z,16.27
2019-04-14T21:01:29.517Z,15.43
2019-04-14T21:04:09.487Z,14.77
2019-04-14T21:06:43.724Z,14.73
2019-04-14T21:09:20.572Z,12.33
2019-04-14T21:12:13.042Z,17.57
2019-04-14T21:14:46.909Z,14.37
2019-04-14T21:17:38.982Z,13.67
2019-04-14T21:20:13.246Z,14.23
2019-04-14T21:23:03.282Z,14.53
2019-04-14T21:25:44.575Z,15.20
2019-04-14T21:28:25.954Z,14.87
2019-04-14T21:31:03.140Z,14.47
2019-04-14T21:33:47.383Z,16.60
2019-04-14T21:36:36.648Z,15.37
2019-04-14T21:39:11.791Z,13.50
2019-04-14T21:41:46.521Z,16.17
2019-04-14T21:44:18.659Z,14.23
2019-04-14T21:46:51.358Z,13.40
2019-04-14T21:49:24.048Z,18.60
2019-04-14T21:51:59.032Z,15.27
2019-04-14T21:54:31.658Z,15.63
2019-04-14T21:57:13.247Z,16.87
2019-04-14T21:59:48.692Z,14.47
2019-04-14T22:02:40.001Z,17.70
2019-04-14T22:05:23.456Z,15.73
2019-04-14T22:07:55.820Z,14.80
2019-04-14T22:10:32.793Z,17.67
2019-04-14T22:13:05.467Z,13.90
2019-04-14T22:15:38.799Z,15.87
2019-04-14T22:18:11.040Z,16.13
2019-04-14T22:20:43.697Z,14.67
2019-04-14T22:23:16.389Z,14.83
2019-04-14T22:25:48.825Z,14.17
2019-04-14T22:28:21.541Z,16.90
2019-04-14T22:30:54.115Z,15.80
2019-04-14T22:33:26.878Z,13.80
2019-04-14T22:35:59.476Z,13.97
2019-04-14T22:38:32.005Z,13.57
2019-04-14T22:41:05.942Z,14.20
2019-04-14T22:43:38.761Z,15.63
2019-04-14T22:46:11.419Z,12.93
2019-04-14T22:48:44.097Z,14.07
2019-04-14T22:51:16.777Z,13.57
2019-04-14T22:53:49.348Z,13.57
2019-04-14T22:56:21.574Z,13.07
2019-04-14T22:58:54.313Z,14.83
2019-04-14T23:01:28.521Z,14.47
2019-04-14T23:04:11.674Z,20.37
2019-04-14T23:07:02.545Z,16.10
2019-04-14T23:09:35.207Z,13.40
2019-04-14T23:12:10.650Z,14.17
2019-04-14T23:14:42.643Z,16.07
2019-04-14T23:17:16.827Z,14.07
2019-04-14T23:19:56.783Z,14.40
2019-04-14T23:22:30.997Z,13.07
2019-04-14T23:25:03.674Z,12.80
2019-04-14T23:27:36.362Z,17.00
2019-04-14T23:30:09.755Z,14.00
2019-04-14T23:32:42.326Z,10.93
2019-04-14T23:35:15.007Z,13.93
2019-04-14T23:37:47.788Z,12.60
2019-04-14T23:40:20.570Z,13.87
2019-04-14T23:42:53.245Z,13.73
2019-04-14T23:45:26.434Z,14.07
2019-04-14T23:47:58.890Z,15.23
2019-04-14T23:50:31.088Z,12.67
2019-04-14T23:53:04.015Z,15.73
2019-04-14T23:55:36.839Z,17.37
2019-04-14T23:58:09.316Z,14.43
